KLCK/LCK METAR and TAF weather

Enter ICAO airport designator
Station Type Date Time Source
KLCK METAR 2020/12/01 21:55 UTC NOAA

KLCK 012155Z AUTO 26014G23KT 10SM OVC018 00/M03 A2993 RMK AO2 T10051035


Station Type Date Time Source
KLCK Decoded METAR 2020/12/01 21:55 UTC NOAA

Rickenbacker Air National Guard Base, OH, United States (KLCK) 39-49N 082-56W
Dec 01, 2020 - 04:55 PM EST / 2020.12.01 2155 UTC
Wind: from the W (260 degrees) at 16 MPH (14 KT) gusting to 26 MPH (23 KT):0
Visibility: 10 mile(s):0
Sky conditions: overcast
Temperature: 31.1 F (-0.5 C)
Windchill: 19 F (-7 C):1
Dew Point: 25.7 F (-3.5 C)
Relative Humidity: 80%
Pressure (altimeter): 29.93 in. Hg (1013 hPa)
ob: KLCK 012155Z AUTO 26014G23KT 10SM OVC018 00/M03 A2993 RMK AO2 T10051035
cycle: 22

Station Type Date Time Source
KLCK TAF 2020/12/01 18:54 UTC NOAA

TAF KLCK 011730Z 0118/0218 27015G25KT 6SM -SN OVC018
FM020000 27015KT P6SM BKN015
FM020400 27013KT P6SM BKN022
FM021000 27008KT P6SM SCT025

Example: see airport list